createdAt,value
2023-02-12T00:00:58.962Z,119.07
2023-02-12T00:03:33.006Z,121.45
2023-02-12T00:06:02.177Z,123.18
2023-02-12T00:08:29.366Z,120.53
2023-02-12T00:11:02.810Z,130.80
2023-02-12T00:13:31.516Z,105.95
2023-02-12T00:15:58.991Z,90.10
2023-02-12T00:18:32.771Z,129.25
2023-02-12T00:21:08.855Z,100.60
2023-02-12T00:23:42.917Z,105.60
2023-02-12T00:26:14.437Z,124.10
2023-02-12T00:28:41.553Z,134.95
2023-02-12T00:31:15.934Z,144.02
2023-02-12T00:33:43.194Z,130.45
2023-02-12T00:36:18.019Z,133.88
2023-02-12T00:38:45.412Z,122.22
2023-02-12T00:41:12.975Z,149.63
2023-02-12T00:46:14.012Z,173.93
2023-02-12T00:48:47.884Z,131.63
2023-02-12T00:51:15.433Z,137.27
2023-02-12T00:56:22.757Z,137.55
2023-02-12T00:58:56.932Z,167.98
2023-02-12T01:01:24.117Z,158.68
2023-02-12T01:03:51.339Z,162.70
2023-02-12T01:06:24.796Z,180.07
2023-02-12T01:08:52.683Z,174.60
2023-02-12T01:11:26.915Z,203.95
2023-02-12T01:13:54.126Z,196.00
2023-02-12T01:16:23.276Z,225.10
2023-02-12T01:18:57.878Z,264.88
2023-02-12T01:21:32.800Z,220.60
2023-02-12T01:24:13.987Z,274.52
2023-02-12T01:26:41.068Z,259.15
2023-02-12T01:29:08.334Z,414.20
2023-02-12T01:31:44.991Z,306.25
2023-02-12T01:34:13.080Z,479.40
2023-02-12T01:36:46.849Z,439.50
2023-02-12T01:39:14.113Z,417.90
2023-02-12T01:41:43.456Z,422.10
2023-02-12T01:44:22.817Z,406.52
2023-02-12T01:46:51.155Z,516.47
2023-02-12T01:49:29.838Z,356.27
2023-02-12T01:52:08.776Z,477.65
2023-02-12T01:54:42.797Z,523.00
2023-02-12T01:57:12.589Z,392.92
2023-02-12T01:59:46.902Z,298.73
2023-02-12T02:02:14.087Z,530.63
2023-02-12T02:04:44.087Z,491.85
2023-02-12T02:07:18.825Z,475.73
2023-02-12T02:09:46.658Z,493.10
2023-02-12T02:12:38.903Z,534.53
2023-02-12T02:15:06.837Z,505.65
2023-02-12T02:17:53.892Z,506.27
2023-02-12T02:20:27.833Z,235.15
2023-02-12T02:23:16.915Z,566.65
2023-02-12T02:26:02.755Z,261.23
2023-02-12T02:28:54.930Z,623.83
2023-02-12T02:31:43.464Z,527.15
2023-02-12T02:34:17.944Z,485.05
2023-02-12T02:36:59.802Z,442.35
2023-02-12T02:39:56.037Z,506.70
2023-02-12T02:42:23.095Z,566.15
2023-02-12T02:45:06.968Z,372.33
2023-02-12T02:47:38.460Z,462.73
2023-02-12T02:50:32.791Z,616.65
2023-02-12T02:53:11.728Z,426.92
2023-02-12T02:55:41.847Z,649.17
2023-02-12T02:58:24.716Z,426.88
2023-02-12T03:00:58.094Z,329.23
2023-02-12T03:03:34.719Z,444.75
2023-02-12T03:06:12.159Z,430.17
2023-02-12T03:08:48.738Z,384.55
2023-02-12T03:11:19.020Z,461.88
2023-02-12T03:13:55.741Z,689.42
2023-02-12T03:16:28.081Z,609.85
2023-02-12T03:19:09.031Z,699.38
2023-02-12T03:21:45.859Z,723.13
2023-02-12T03:24:29.748Z,613.97
2023-02-12T03:27:00.285Z,734.05
2023-02-12T03:29:33.754Z,811.92
2023-02-12T03:32:08.487Z,673.38
2023-02-12T03:35:00.752Z,511.27
2023-02-12T03:37:30.407Z,286.77
2023-02-12T03:40:06.748Z,427.70
2023-02-12T03:42:51.264Z,525.40
2023-02-12T03:45:29.792Z,562.65
2023-02-12T03:47:57.082Z,619.58
2023-02-12T03:50:49.753Z,413.83
2023-02-12T03:53:17.186Z,692.40
2023-02-12T03:55:53.064Z,631.30
2023-02-12T03:58:22.229Z,672.97
2023-02-12T04:00:49.335Z,694.47
2023-02-12T04:03:22.873Z,715.75
2023-02-12T04:05:50.107Z,575.70
2023-02-12T04:08:17.269Z,700.72
2023-02-12T04:11:01.866Z,612.50
2023-02-12T04:13:35.225Z,438.52
2023-02-12T04:16:11.837Z,889.30
2023-02-12T04:18:43.678Z,687.60
2023-02-12T04:21:42.895Z,446.05
2023-02-12T04:24:23.375Z,728.72
2023-02-12T04:27:01.835Z,458.75
2023-02-12T04:29:40.837Z,202.02
2023-02-12T04:32:18.840Z,622.35
2023-02-12T04:34:45.906Z,495.92
2023-02-12T04:37:34.825Z,359.95
2023-02-12T04:40:04.181Z,523.00
2023-02-12T04:42:37.936Z,338.73
2023-02-12T04:45:05.384Z,336.02
2023-02-12T04:47:32.551Z,262.58
2023-02-12T04:50:05.874Z,338.40
2023-02-12T04:52:32.958Z,440.95
2023-02-12T04:55:06.990Z,523.78
2023-02-12T04:57:46.819Z,270.05
2023-02-12T05:00:21.172Z,361.77
2023-02-12T05:02:48.265Z,183.85
2023-02-12T05:05:15.567Z,429.63
2023-02-12T05:07:49.257Z,712.10
2023-02-12T05:10:16.506Z,298.55
2023-02-12T05:12:49.948Z,432.92
2023-02-12T05:15:17.098Z,265.75
2023-02-12T05:17:45.760Z,309.05
2023-02-12T05:20:19.992Z,558.08
2023-02-12T05:22:54.529Z,332.17
2023-02-12T05:25:29.013Z,626.08
2023-02-12T05:27:57.088Z,618.25
2023-02-12T05:30:24.360Z,298.35
2023-02-12T05:32:57.859Z,445.80
2023-02-12T05:35:25.075Z,293.38
2023-02-12T05:37:59.018Z,177.85
2023-02-12T05:40:26.237Z,132.55
2023-02-12T05:42:53.317Z,273.48
2023-02-12T05:45:26.865Z,130.73
2023-02-12T05:47:57.445Z,131.25
2023-02-12T05:50:31.105Z,145.23
2023-02-12T05:52:58.278Z,196.80
2023-02-12T05:55:25.371Z,135.73
2023-02-12T05:57:58.913Z,183.20
2023-02-12T06:00:26.163Z,183.95
2023-02-12T06:02:59.895Z,239.32
2023-02-12T06:05:27.228Z,193.63
2023-02-12T06:08:01.126Z,225.43
2023-02-12T06:10:28.309Z,312.15
2023-02-12T06:12:56.294Z,249.20
2023-02-12T06:15:29.981Z,160.45
2023-02-12T06:17:57.262Z,189.93
2023-02-12T06:20:24.378Z,202.20
2023-02-12T06:23:04.944Z,252.13
2023-02-12T06:25:38.973Z,140.93
2023-02-12T06:28:13.158Z,142.07
2023-02-12T06:30:40.286Z,144.40
2023-02-12T06:33:07.546Z,166.52
2023-02-12T06:35:44.948Z,150.57
2023-02-12T06:38:12.136Z,110.53
2023-02-12T06:40:46.016Z,143.00
2023-02-12T06:43:13.218Z,146.55
2023-02-12T06:45:40.472Z,122.50
2023-02-12T06:48:13.879Z,138.90
2023-02-12T06:50:41.053Z,122.15
2023-02-12T06:53:14.981Z,99.75
2023-02-12T06:55:42.354Z,87.75
2023-02-12T06:58:09.444Z,113.03
2023-02-12T07:00:42.927Z,126.18
2023-02-12T07:03:10.334Z,108.20
2023-02-12T07:05:47.033Z,83.45
2023-02-12T07:08:14.354Z,100.75
2023-02-12T07:10:41.568Z,82.40
2023-02-12T07:13:14.974Z,98.35
2023-02-12T07:15:42.245Z,75.07
2023-02-12T07:18:15.978Z,85.60
2023-02-12T07:20:43.141Z,90.85
2023-02-12T07:23:26.900Z,66.57
2023-02-12T07:25:58.058Z,83.82
2023-02-12T07:28:25.566Z,50.00
2023-02-12T07:31:02.070Z,62.85
2023-02-12T07:33:29.366Z,98.60
2023-02-12T07:36:02.996Z,74.55
2023-02-12T07:38:30.378Z,69.78
2023-02-12T07:41:12.930Z,87.07
2023-02-12T07:43:40.745Z,67.05
2023-02-12T07:46:24.095Z,80.40
2023-02-12T07:48:51.632Z,74.00
2023-02-12T07:53:56.010Z,80.65
2023-02-12T07:56:24.593Z,105.43
2023-02-12T07:58:59.040Z,85.65
2023-02-12T08:01:30.743Z,94.80
2023-02-12T08:04:12.259Z,79.93
2023-02-12T08:06:41.518Z,67.80
2023-02-12T08:09:11.752Z,85.38
2023-02-12T08:11:47.128Z,63.83
2023-02-12T08:14:17.025Z,58.53
2023-02-12T08:16:44.882Z,81.43
2023-02-12T08:19:22.468Z,78.38
2023-02-12T08:22:12.804Z,83.90
2023-02-12T08:24:46.951Z,87.63
2023-02-12T08:27:20.990Z,92.30
2023-02-12T08:29:48.236Z,83.05
2023-02-12T08:32:17.085Z,62.97
2023-02-12T08:34:50.905Z,62.95
2023-02-12T08:37:24.937Z,101.72
2023-02-12T08:39:52.176Z,95.85
2023-02-12T08:42:19.347Z,92.90
2023-02-12T08:44:52.830Z,100.68
2023-02-12T08:47:28.670Z,97.53
2023-02-12T08:49:56.913Z,82.97
2023-02-12T08:52:24.003Z,82.38
2023-02-12T08:54:57.911Z,85.75
2023-02-12T08:57:25.083Z,82.43
2023-02-12T08:59:59.135Z,88.13
2023-02-12T09:02:26.441Z,81.15
2023-02-12T09:04:53.637Z,90.85
2023-02-12T09:07:26.902Z,78.00
2023-02-12T09:09:54.212Z,97.40
2023-02-12T09:12:28.064Z,93.47
2023-02-12T09:14:55.232Z,76.78
2023-02-12T09:17:27.356Z,79.45
2023-02-12T09:20:01.133Z,75.25
2023-02-12T09:22:47.810Z,75.07
2023-02-12T09:25:22.051Z,76.35
2023-02-12T09:27:49.265Z,93.40
2023-02-12T09:30:16.603Z,84.07
2023-02-12T09:32:50.932Z,65.75
2023-02-12T09:35:19.089Z,83.68
2023-02-12T09:37:53.093Z,73.05
2023-02-12T09:40:20.300Z,72.32
2023-02-12T09:43:03.944Z,75.22
2023-02-12T09:45:33.314Z,73.03
2023-02-12T09:48:17.219Z,62.85
2023-02-12T09:50:48.030Z,74.43
2023-02-12T09:53:26.905Z,61.42
2023-02-12T09:56:00.858Z,88.95
2023-02-12T09:58:35.564Z,65.95
2023-02-12T10:01:13.921Z,66.85
2023-02-12T10:03:41.348Z,58.35
2023-02-12T10:06:27.866Z,70.30
2023-02-12T10:09:20.705Z,64.45
2023-02-12T10:12:20.627Z,68.90
2023-02-12T10:15:03.292Z,59.90
2023-02-12T10:17:57.017Z,55.35
2023-02-12T10:20:41.400Z,50.58
2023-02-12T10:23:20.860Z,49.67
2023-02-12T10:26:00.380Z,42.80
2023-02-12T10:28:41.901Z,37.65
2023-02-12T10:31:21.082Z,51.20
2023-02-12T10:33:55.973Z,55.33
2023-02-12T10:36:38.488Z,48.85
2023-02-12T10:39:21.877Z,56.10
2023-02-12T10:42:15.548Z,49.33
2023-02-12T10:44:48.959Z,55.58
2023-02-12T10:47:23.189Z,44.05
2023-02-12T10:50:05.052Z,69.13
2023-02-12T10:52:39.911Z,41.55
2023-02-12T10:55:31.031Z,47.65
2023-02-12T10:57:58.913Z,42.92
2023-02-12T11:00:26.124Z,39.88
2023-02-12T11:05:54.415Z,29.05
2023-02-12T11:08:38.936Z,43.60
2023-02-12T11:11:08.781Z,57.00
2023-02-12T11:13:43.023Z,42.50
2023-02-12T11:16:10.922Z,38.20
2023-02-12T11:18:38.384Z,36.28
2023-02-12T11:21:14.049Z,49.75
2023-02-12T11:23:48.902Z,35.25
2023-02-12T11:26:26.024Z,35.78
2023-02-12T11:28:58.145Z,52.83
2023-02-12T11:31:42.092Z,34.85
2023-02-12T11:34:16.632Z,35.28
2023-02-12T11:36:53.117Z,45.40
2023-02-12T11:39:34.080Z,32.55
2023-02-12T11:42:29.924Z,28.02
2023-02-12T11:44:58.520Z,26.33
2023-02-12T11:47:36.934Z,39.45
2023-02-12T11:50:23.902Z,32.88
2023-02-12T11:52:59.068Z,30.77
2023-02-12T11:55:33.531Z,29.48
2023-02-12T11:58:10.045Z,33.70
2023-02-12T12:00:46.755Z,29.40
2023-02-12T12:03:23.085Z,24.45
2023-02-12T12:05:51.671Z,30.05
2023-02-12T12:08:47.924Z,31.95
2023-02-12T12:11:17.761Z,33.00
2023-02-12T12:14:00.979Z,25.45
2023-02-12T12:16:52.896Z,36.90
2023-02-12T12:19:51.035Z,33.83
2023-02-12T12:22:52.880Z,21.27
2023-02-12T12:25:34.965Z,26.33
2023-02-12T12:28:20.299Z,19.02
2023-02-12T12:31:23.654Z,24.08
2023-02-12T12:33:52.809Z,23.65
2023-02-12T12:36:45.088Z,30.10
2023-02-12T12:39:30.846Z,23.73
2023-02-12T12:42:07.943Z,24.98
2023-02-12T12:44:53.795Z,27.02
2023-02-12T12:47:34.092Z,26.85
2023-02-12T12:50:07.183Z,31.10
2023-02-12T12:53:03.991Z,22.30
2023-02-12T12:55:42.792Z,24.02
2023-02-12T12:58:19.965Z,15.10
2023-02-12T13:00:48.133Z,19.40
2023-02-12T13:03:41.938Z,17.98
2023-02-12T13:06:09.246Z,18.67
2023-02-12T13:08:49.106Z,18.15
2023-02-12T13:11:22.553Z,17.63
2023-02-12T13:13:58.084Z,24.83
2023-02-12T13:16:35.407Z,17.73
2023-02-12T13:19:12.145Z,17.40
2023-02-12T13:21:59.551Z,23.52
2023-02-12T13:24:55.088Z,15.18
2023-02-12T13:27:26.913Z,20.27
2023-02-12T13:30:06.167Z,21.10
2023-02-12T13:32:40.691Z,11.60
2023-02-12T13:35:15.208Z,17.33
2023-02-12T13:37:48.927Z,14.10
2023-02-12T13:40:27.099Z,15.13
2023-02-12T13:45:31.888Z,16.15
2023-02-12T13:48:17.913Z,16.77
2023-02-12T13:50:45.361Z,12.63
2023-02-12T13:53:30.922Z,11.90
2023-02-12T13:56:06.554Z,16.45
2023-02-12T13:58:45.928Z,12.15
2023-02-12T14:01:14.786Z,13.20
2023-02-12T14:03:48.925Z,13.85
2023-02-12T14:06:17.356Z,14.27
2023-02-12T14:08:51.901Z,17.17
2023-02-12T14:11:20.908Z,15.68
2023-02-12T14:14:05.935Z,18.48
2023-02-12T14:16:33.169Z,11.68
2023-02-12T14:19:25.918Z,13.90
2023-02-12T14:21:53.163Z,10.35
2023-02-12T14:24:51.930Z,20.05
2023-02-12T14:27:24.527Z,11.15
2023-02-12T14:30:16.908Z,15.70
2023-02-12T14:32:47.174Z,11.25
2023-02-12T14:35:39.937Z,15.07
2023-02-12T14:38:12.832Z,10.20
2023-02-12T14:40:50.910Z,12.30
2023-02-12T14:43:56.261Z,13.80
2023-02-12T14:46:29.940Z,9.07
2023-02-12T14:48:58.437Z,15.00
2023-02-12T14:51:52.092Z,14.13
2023-02-12T14:54:27.764Z,11.27
2023-02-12T14:57:05.175Z,15.82
2023-02-12T14:59:34.895Z,17.25
2023-02-12T15:02:04.179Z,13.70
2023-02-12T15:04:40.003Z,11.85
2023-02-12T15:07:17.615Z,15.60
2023-02-12T15:10:17.077Z,19.50
2023-02-12T15:15:27.041Z,19.50
2023-02-12T15:18:03.526Z,21.63
2023-02-12T15:20:42.092Z,19.33
2023-02-12T15:23:34.519Z,14.30
2023-02-12T15:26:08.998Z,21.67
2023-02-12T15:28:37.712Z,18.35
2023-02-12T15:31:16.119Z,18.15
2023-02-12T15:33:46.447Z,19.05
2023-02-12T15:36:24.040Z,16.10
2023-02-12T15:39:05.991Z,15.70
2023-02-12T15:41:40.027Z,21.48
2023-02-12T15:44:25.933Z,15.93
2023-02-12T15:47:12.264Z,18.10
2023-02-12T15:49:47.066Z,13.60
2023-02-12T15:52:21.434Z,22.35
2023-02-12T15:54:55.946Z,23.15
2023-02-12T15:57:23.979Z,27.23
2023-02-12T15:59:59.201Z,17.95
2023-02-12T16:02:28.451Z,17.85
2023-02-12T16:04:56.035Z,22.73
2023-02-12T16:09:57.605Z,21.55
2023-02-12T16:15:00.455Z,22.73
2023-02-12T16:17:42.170Z,29.73
2023-02-12T16:20:19.028Z,22.70
2023-02-12T16:23:06.012Z,16.77
2023-02-12T16:25:33.785Z,25.17
2023-02-12T16:28:12.044Z,19.35
2023-02-12T16:30:42.875Z,25.83
2023-02-12T16:33:35.060Z,25.38
2023-02-12T16:36:03.334Z,35.75
2023-02-12T16:38:51.034Z,21.25
2023-02-12T16:41:21.376Z,21.88
2023-02-12T16:43:56.109Z,25.50
2023-02-12T16:46:23.325Z,21.60
2023-02-12T16:48:58.163Z,19.55
2023-02-12T16:51:36.257Z,31.70
2023-02-12T16:56:41.963Z,25.50
2023-02-12T16:59:09.780Z,23.35
2023-02-12T17:01:44.021Z,33.45
2023-02-12T17:04:22.952Z,30.92
2023-02-12T17:06:57.207Z,26.05
2023-02-12T17:09:24.541Z,23.02
2023-02-12T17:11:51.636Z,29.08
2023-02-12T17:14:26.119Z,28.77
2023-02-12T17:17:00.183Z,33.38
2023-02-12T17:19:27.478Z,21.83
2023-02-12T17:21:54.730Z,35.55
2023-02-12T17:24:30.035Z,24.13
2023-02-12T17:26:57.220Z,31.80
2023-02-12T17:29:32.188Z,29.67
2023-02-12T17:31:59.476Z,31.65
2023-02-12T17:34:28.761Z,34.42
2023-02-12T17:37:04.054Z,37.95
2023-02-12T17:39:31.210Z,35.13
2023-02-12T17:42:07.190Z,33.83
2023-02-12T17:44:34.391Z,44.75
2023-02-12T17:47:01.501Z,31.35
2023-02-12T17:49:35.119Z,30.95
2023-02-12T17:52:02.699Z,29.27
2023-02-12T17:57:03.525Z,36.35
2023-02-12T17:59:30.609Z,37.58
2023-02-12T18:02:05.321Z,44.83
2023-02-12T18:04:35.686Z,39.15
2023-02-12T18:07:03.745Z,42.20
2023-02-12T18:09:38.060Z,31.85
2023-02-12T18:12:05.298Z,38.75
2023-02-12T18:14:39.004Z,38.53
2023-02-12T18:17:06.410Z,37.47
2023-02-12T18:19:33.556Z,36.08
2023-02-12T18:22:06.968Z,51.35
2023-02-12T18:24:41.448Z,49.45
2023-02-12T18:27:15.029Z,55.88
2023-02-12T18:29:42.773Z,43.35
2023-02-12T18:32:14.562Z,56.10
2023-02-12T18:34:48.134Z,63.63
2023-02-12T18:37:19.858Z,52.28
2023-02-12T18:39:54.163Z,52.53
2023-02-12T18:42:21.386Z,52.85
2023-02-12T18:44:56.195Z,47.85
2023-02-12T18:47:23.462Z,50.10
2023-02-12T18:49:50.544Z,59.17
2023-02-12T18:52:24.056Z,58.25
2023-02-12T18:54:52.084Z,48.22
2023-02-12T18:57:26.067Z,58.75
2023-02-12T18:59:53.248Z,73.53
2023-02-12T19:02:27.143Z,69.57
2023-02-12T19:04:54.514Z,68.38
2023-02-12T19:07:21.673Z,59.65
2023-02-12T19:09:55.045Z,56.58
2023-02-12T19:12:22.326Z,52.00
2023-02-12T19:14:49.444Z,67.00
2023-02-12T19:17:22.989Z,60.55
2023-02-12T19:19:51.241Z,66.82
2023-02-12T19:22:26.171Z,60.22
2023-02-12T19:25:00.170Z,49.55
2023-02-12T19:27:34.119Z,61.55
2023-02-12T19:30:01.959Z,71.10
2023-02-12T19:32:29.147Z,61.53
2023-02-12T19:35:03.062Z,71.53
2023-02-12T19:37:31.925Z,52.22
2023-02-12T19:40:06.204Z,84.03
2023-02-12T19:42:33.818Z,60.35
2023-02-12T19:47:35.076Z,79.07
2023-02-12T19:50:02.331Z,73.63
2023-02-12T19:52:36.500Z,72.35
2023-02-12T19:55:03.661Z,79.35
2023-02-12T19:57:30.750Z,75.22
2023-02-12T20:00:04.150Z,84.03
2023-02-12T20:02:31.328Z,73.63
2023-02-12T20:05:05.297Z,72.05
2023-02-12T20:07:32.522Z,71.82
2023-02-12T20:09:59.597Z,74.57
2023-02-12T20:12:33.068Z,70.35
2023-02-12T20:15:02.614Z,74.63
2023-02-12T20:17:36.335Z,71.50
2023-02-12T20:20:04.017Z,67.18
2023-02-12T20:22:31.287Z,72.03
2023-02-12T20:25:05.327Z,77.80
2023-02-12T20:27:32.610Z,78.93
2023-02-12T20:29:59.713Z,74.72
2023-02-12T20:32:33.128Z,79.05
2023-02-12T20:35:00.298Z,73.45
2023-02-12T20:37:34.338Z,82.68
2023-02-12T20:40:01.500Z,56.33
2023-02-12T20:42:28.583Z,67.45
2023-02-12T20:45:02.092Z,60.22
2023-02-12T20:47:29.313Z,61.92
2023-02-12T20:50:03.324Z,59.20
2023-02-12T20:52:31.728Z,58.88
2023-02-12T20:54:58.972Z,81.28
2023-02-12T20:57:33.086Z,68.57
2023-02-12T21:00:00.224Z,67.78
2023-02-12T21:02:34.551Z,65.53
2023-02-12T21:05:01.740Z,76.90
2023-02-12T21:07:28.841Z,65.50
2023-02-12T21:10:03.211Z,63.20
2023-02-12T21:12:30.374Z,66.82
2023-02-12T21:15:04.049Z,75.28
2023-02-12T21:17:31.434Z,73.97
2023-02-12T21:19:58.544Z,67.97
2023-02-12T21:22:32.041Z,72.18
2023-02-12T21:25:06.335Z,82.88
2023-02-12T21:27:40.041Z,60.55
2023-02-12T21:30:15.084Z,84.78
2023-02-12T21:32:49.031Z,68.40
2023-02-12T21:35:23.228Z,69.78
2023-02-12T21:37:50.424Z,69.63
2023-02-12T21:40:17.648Z,71.47
2023-02-12T21:42:51.211Z,61.67
2023-02-12T21:45:18.385Z,66.32
2023-02-12T21:47:52.349Z,49.70
2023-02-12T21:50:19.554Z,61.13
2023-02-12T21:52:46.706Z,61.10
2023-02-12T21:55:20.130Z,71.60
2023-02-12T21:57:47.321Z,61.00
2023-02-12T22:00:21.249Z,51.75
2023-02-12T22:02:48.658Z,34.67
2023-02-12T22:05:15.815Z,46.22
2023-02-12T22:07:49.112Z,39.47
2023-02-12T22:10:16.337Z,57.67
2023-02-12T22:12:50.061Z,44.10
2023-02-12T22:15:17.288Z,45.72
2023-02-12T22:17:44.557Z,56.13
2023-02-12T22:20:18.047Z,43.97
2023-02-12T22:22:45.251Z,70.28
2023-02-12T22:25:26.041Z,52.55
2023-02-12T22:28:00.178Z,54.67
2023-02-12T22:30:34.152Z,66.32
2023-02-12T22:33:01.403Z,58.85
2023-02-12T22:35:28.491Z,57.35
2023-02-12T22:38:02.028Z,45.80
2023-02-12T22:40:29.353Z,59.28
2023-02-12T22:43:03.148Z,66.00
2023-02-12T22:45:30.595Z,51.40
2023-02-12T22:47:57.687Z,46.33
2023-02-12T22:50:31.042Z,55.63
2023-02-12T22:52:58.446Z,55.00
2023-02-12T22:55:32.046Z,55.70
2023-02-12T22:57:59.699Z,57.63
2023-02-12T23:00:33.042Z,48.75
2023-02-12T23:03:00.383Z,51.55
2023-02-12T23:08:01.441Z,50.95
2023-02-12T23:10:28.517Z,53.00
2023-02-12T23:13:02.030Z,50.58
2023-02-12T23:15:29.365Z,53.55
2023-02-12T23:18:03.114Z,73.85
2023-02-12T23:20:30.364Z,45.40
2023-02-12T23:22:57.458Z,58.20
2023-02-12T23:25:31.300Z,70.30
2023-02-12T23:27:58.537Z,59.70
2023-02-12T23:30:25.667Z,51.85
2023-02-12T23:32:59.129Z,48.58
2023-02-12T23:35:26.393Z,63.30
2023-02-12T23:38:00.170Z,47.10
2023-02-12T23:40:27.432Z,50.85
2023-02-12T23:42:54.583Z,52.05
2023-02-12T23:45:28.146Z,50.22
2023-02-12T23:47:55.380Z,49.13
2023-02-12T23:50:29.281Z,56.70
2023-02-12T23:52:56.533Z,52.17
2023-02-12T23:55:23.780Z,63.22
2023-02-12T23:57:57.169Z,51.40
